createdAt,value
2023-02-09T00:00:06.781Z,-3.2
2023-02-09T00:01:06.168Z,-4
2023-02-09T00:02:06.236Z,-3.2
2023-02-09T00:03:05.772Z,-3.2
2023-02-09T00:04:06.375Z,-3.2
2023-02-09T00:05:05.860Z,-3.2
2023-02-09T00:06:06.510Z,-3.2
2023-02-09T00:07:05.975Z,-3.2
2023-02-09T00:08:05.712Z,-3.2
2023-02-09T00:09:06.231Z,-3.3
2023-02-09T00:10:05.992Z,-3.3
2023-02-09T00:11:06.590Z,-3.3
2023-02-09T00:12:05.895Z,-4
2023-02-09T00:13:06.825Z,-3.4
2023-02-09T00:14:06.489Z,-3.4
2023-02-09T00:15:06.081Z,-3.4
2023-02-09T00:16:06.512Z,-3.4
2023-02-09T00:17:06.545Z,-3.4
2023-02-09T00:18:05.916Z,-3.4
2023-02-09T00:19:05.760Z,-3.4
2023-02-09T00:20:06.350Z,-3.4
2023-02-09T00:21:05.979Z,-3.4
2023-02-09T00:22:06.701Z,-3.4
2023-02-09T00:23:06.157Z,-3.5
2023-02-09T00:24:05.868Z,-3.5
2023-02-09T00:25:06.563Z,-3.5
2023-02-09T00:26:06.308Z,-3.5
2023-02-09T00:27:05.860Z,-3.5
2023-02-09T00:28:06.626Z,-3.5
2023-02-09T00:29:06.022Z,-3.6
2023-02-09T00:30:06.495Z,-3.5
2023-02-09T00:31:06.563Z,-3.6
2023-02-09T00:32:06.411Z,-3.6
2023-02-09T00:33:05.846Z,-3.6
2023-02-09T00:34:06.362Z,-3.6
2023-02-09T00:35:06.006Z,-3.6
2023-02-09T00:36:06.647Z,-3.6
2023-02-09T00:37:06.236Z,-3.6
2023-02-09T00:38:05.833Z,-3.6
2023-02-09T00:39:06.536Z,-3.6
2023-02-09T00:40:06.072Z,-3.6
2023-02-09T00:41:05.871Z,-3.7
2023-02-09T00:42:06.400Z,-3.7
2023-02-09T00:43:05.931Z,-3.7
2023-02-09T00:44:06.670Z,-3.8
2023-02-09T00:45:05.898Z,-3.8
2023-02-09T00:46:06.505Z,-3.8
2023-02-09T00:47:05.920Z,-3.8
2023-02-09T00:48:06.640Z,-5
2023-02-09T00:49:06.260Z,-3.9
2023-02-09T00:50:05.822Z,-3.9
2023-02-09T00:51:06.370Z,-3.9
2023-02-09T00:52:06.832Z,-3.9
2023-02-09T00:53:06.739Z,-3.9
2023-02-09T00:54:06.219Z,-4
2023-02-09T00:55:05.881Z,-4
2023-02-09T00:56:06.602Z,-5
2023-02-09T00:57:06.139Z,-5
2023-02-09T00:58:05.787Z,-4
2023-02-09T00:59:06.433Z,-4
2023-02-09T01:00:06.170Z,-4
2023-02-09T01:01:06.018Z,-4
2023-02-09T01:02:06.591Z,-4
2023-02-09T01:03:06.107Z,-4
2023-02-09T01:04:05.837Z,-4.1
2023-02-09T01:05:06.479Z,-4.1
2023-02-09T01:06:06.114Z,-4.1
2023-02-09T01:07:06.739Z,-4.1
2023-02-09T01:08:06.263Z,-4.2
2023-02-09T01:09:05.942Z,-4.2
2023-02-09T01:10:06.363Z,-5
2023-02-09T01:11:06.101Z,-4.3
2023-02-09T01:12:05.733Z,-4.3
2023-02-09T01:13:06.484Z,-4.3
2023-02-09T01:14:06.124Z,-4.3
2023-02-09T01:15:06.591Z,-5
2023-02-09T01:16:05.952Z,-4.3
2023-02-09T01:17:06.857Z,-4.4
2023-02-09T01:18:06.215Z,-4.4
2023-02-09T01:19:05.844Z,-4.4
2023-02-09T01:20:06.241Z,-4.4
2023-02-09T01:21:05.865Z,-4.4
2023-02-09T01:22:06.635Z,-4.4
2023-02-09T01:23:06.289Z,-5
2023-02-09T01:24:05.817Z,-4.4
2023-02-09T01:25:06.570Z,-4.5
2023-02-09T01:26:06.130Z,-4.5
2023-02-09T01:27:05.912Z,-4.5
2023-02-09T01:28:06.523Z,-4.5
2023-02-09T01:29:06.062Z,-4.5
2023-02-09T01:30:05.883Z,-4.6
2023-02-09T01:31:06.584Z,-4.6
2023-02-09T01:32:06.013Z,-4.6
2023-02-09T01:33:06.361Z,-4.6
2023-02-09T01:34:05.701Z,-4.6
2023-02-09T01:35:06.494Z,-4.6
2023-02-09T01:36:06.133Z,-4.6
2023-02-09T01:37:05.742Z,-4.6
2023-02-09T01:38:06.554Z,-4.6
2023-02-09T01:39:05.928Z,-4.7
2023-02-09T01:40:05.736Z,-4.7
2023-02-09T01:41:06.624Z,-4.7
2023-02-09T01:42:05.875Z,-4.7
2023-02-09T01:43:06.323Z,-4.7
2023-02-09T01:44:06.277Z,-4.7
2023-02-09T01:45:05.857Z,-4.8
2023-02-09T01:46:06.737Z,-4.8
2023-02-09T01:47:06.178Z,-5
2023-02-09T01:48:05.802Z,-4.8
2023-02-09T01:49:06.482Z,-6
2023-02-09T01:50:06.243Z,-4.8
2023-02-09T01:51:05.866Z,-4.8
2023-02-09T01:52:06.322Z,-4.8
2023-02-09T01:53:05.917Z,-4.8
2023-02-09T01:54:06.370Z,-4.8
2023-02-09T01:55:06.202Z,-4.8
2023-02-09T01:56:05.753Z,-4.8
2023-02-09T01:57:06.313Z,-4.9
2023-02-09T01:58:06.040Z,-4.9
2023-02-09T01:59:06.607Z,-6
2023-02-09T02:00:06.457Z,-4.9
2023-02-09T02:01:06.832Z,-6
2023-02-09T02:02:06.025Z,-5
2023-02-09T02:03:05.900Z,-5
2023-02-09T02:04:06.254Z,-5
2023-02-09T02:05:05.969Z,-5
2023-02-09T02:06:06.597Z,-5
2023-02-09T02:07:06.108Z,-5
2023-02-09T02:08:05.846Z,-5
2023-02-09T02:09:06.481Z,-5
2023-02-09T02:10:05.940Z,-5.1
2023-02-09T02:11:06.710Z,-6
2023-02-09T02:12:06.157Z,-5.1
2023-02-09T02:13:05.885Z,-5.1
2023-02-09T02:14:06.614Z,-5.1
2023-02-09T02:15:05.993Z,-5.1
2023-02-09T02:16:06.112Z,-5.1
2023-02-09T02:17:06.670Z,-5.1
2023-02-09T02:18:06.187Z,-5.1
2023-02-09T02:19:05.977Z,-5.1
2023-02-09T02:20:06.573Z,-5.2
2023-02-09T02:21:06.033Z,-5.2
2023-02-09T02:22:06.690Z,-6
2023-02-09T02:23:06.678Z,-5.2
2023-02-09T02:24:06.071Z,-5.2
2023-02-09T02:25:06.528Z,-5.2
2023-02-09T02:26:08.898Z,-5.2
2023-02-09T02:27:06.085Z,-5.2
2023-02-09T02:28:06.006Z,-5.2
2023-02-09T02:29:06.325Z,-5.3
2023-02-09T02:30:06.442Z,-5.3
2023-02-09T02:31:06.851Z,-5.3
2023-02-09T02:32:06.127Z,-5.3
2023-02-09T02:33:06.642Z,-5.3
2023-02-09T02:34:06.342Z,-5.3
2023-02-09T02:35:05.763Z,-5.4
2023-02-09T02:36:06.369Z,-5.4
2023-02-09T02:37:06.061Z,-5.4
2023-02-09T02:38:06.584Z,-5.4
2023-02-09T02:39:06.239Z,-5.4
2023-02-09T02:40:05.977Z,-5.4
2023-02-09T02:41:06.541Z,-5.4
2023-02-09T02:42:06.212Z,-5.5
2023-02-09T02:43:05.868Z,-5.5
2023-02-09T02:44:06.276Z,-5.5
2023-02-09T02:45:06.093Z,-6
2023-02-09T02:46:06.505Z,-5.5
2023-02-09T02:47:05.821Z,-5.5
2023-02-09T02:48:06.384Z,-5.5
2023-02-09T02:49:05.981Z,-5.6
2023-02-09T02:50:06.572Z,-5.6
2023-02-09T02:51:06.261Z,-5.6
2023-02-09T02:52:06.538Z,-5.6
2023-02-09T02:53:06.292Z,-5.6
2023-02-09T02:54:05.831Z,-5.6
2023-02-09T02:55:06.440Z,-5.6
2023-02-09T02:56:06.022Z,-5.6
2023-02-09T02:57:05.912Z,-7
2023-02-09T02:58:06.344Z,-5.6
2023-02-09T02:59:06.016Z,-5.6
2023-02-09T03:00:06.634Z,-7
2023-02-09T03:01:06.188Z,-5.6
2023-02-09T03:02:05.997Z,-5.6
2023-02-09T03:03:06.415Z,-5.7
2023-02-09T03:04:06.326Z,-5.7
2023-02-09T03:05:06.164Z,-5.7
2023-02-09T03:06:05.861Z,-5.7
2023-02-09T03:07:06.371Z,-5.7
2023-02-09T03:08:06.089Z,-7
2023-02-09T03:09:06.673Z,-5.7
2023-02-09T03:10:07.691Z,-5.7
2023-02-09T03:11:05.790Z,-5.8
2023-02-09T03:12:06.673Z,-5.8
2023-02-09T03:13:06.103Z,-7
2023-02-09T03:14:05.893Z,-5.8
2023-02-09T03:15:06.603Z,-5.8
2023-02-09T03:16:06.569Z,-5.8
2023-02-09T03:17:06.673Z,-5.8
2023-02-09T03:18:06.377Z,-5.8
2023-02-09T03:19:05.951Z,-5.8
2023-02-09T03:20:06.511Z,-5.8
2023-02-09T03:21:06.192Z,-5.8
2023-02-09T03:22:05.845Z,-5.9
2023-02-09T03:23:06.548Z,-5.8
2023-02-09T03:24:06.140Z,-5.8
2023-02-09T03:25:05.727Z,-5.8
2023-02-09T03:26:06.312Z,-5.9
2023-02-09T03:27:05.750Z,-5.9
2023-02-09T03:28:06.506Z,-5.8
2023-02-09T03:29:06.210Z,-5.9
2023-02-09T03:30:05.985Z,-5.8
2023-02-09T03:31:06.812Z,-5.8
2023-02-09T03:32:05.814Z,-5.9
2023-02-09T03:33:06.559Z,-5.9
2023-02-09T03:34:05.909Z,-5.8
2023-02-09T03:35:06.632Z,-5.8
2023-02-09T03:36:06.270Z,-5.8
2023-02-09T03:37:05.916Z,-5.9
2023-02-09T03:38:06.482Z,-5.9
2023-02-09T03:39:05.905Z,-5.9
2023-02-09T03:40:05.774Z,-5.9
2023-02-09T03:41:08.159Z,-5.9
2023-02-09T03:42:06.017Z,-5.9
2023-02-09T03:43:06.539Z,-5.9
2023-02-09T03:44:06.434Z,-5.9
2023-02-09T03:45:06.110Z,-6
2023-02-09T03:46:06.012Z,-6
2023-02-09T03:47:06.501Z,-6
2023-02-09T03:48:06.158Z,-6
2023-02-09T03:49:05.762Z,-6
2023-02-09T03:50:06.376Z,-6
2023-02-09T03:51:05.923Z,-6
2023-02-09T03:52:06.529Z,-6
2023-02-09T03:53:06.262Z,-6
2023-02-09T03:54:05.850Z,-6.1
2023-02-09T03:55:06.410Z,-7
2023-02-09T03:56:06.068Z,-6.2
2023-02-09T03:57:06.920Z,-6.2
2023-02-09T03:58:06.279Z,-6.2
2023-02-09T03:59:05.931Z,-6.2
2023-02-09T04:00:06.364Z,-6.2
2023-02-09T04:01:06.278Z,-6.3
2023-02-09T04:02:05.936Z,-6.3
2023-02-09T04:03:06.267Z,-6.3
2023-02-09T04:04:06.119Z,-7
2023-02-09T04:05:09.811Z,-6.4
2023-02-09T04:06:06.218Z,-6.4
2023-02-09T04:07:05.949Z,-6.4
2023-02-09T04:08:06.666Z,-6.4
2023-02-09T04:09:06.219Z,-6.4
2023-02-09T04:10:05.746Z,-6.4
2023-02-09T04:11:06.362Z,-7
2023-02-09T04:12:06.101Z,-6.5
2023-02-09T04:13:06.734Z,-6.4
2023-02-09T04:14:06.337Z,-6.5
2023-02-09T04:15:05.896Z,-6.5
2023-02-09T04:16:06.698Z,-6.5
2023-02-09T04:17:06.128Z,-6.5
2023-02-09T04:18:05.903Z,-6.5
2023-02-09T04:19:06.477Z,-8
2023-02-09T04:20:06.160Z,-6.5
2023-02-09T04:21:05.725Z,-6.5
2023-02-09T04:22:06.390Z,-6.5
2023-02-09T04:23:05.781Z,-6.5
2023-02-09T04:24:06.604Z,-6.5
2023-02-09T04:25:06.133Z,-6.5
2023-02-09T04:26:05.682Z,-6.5
2023-02-09T04:27:06.360Z,-6.5
2023-02-09T04:28:06.096Z,-6.5
2023-02-09T04:29:06.557Z,-6.5
2023-02-09T04:30:06.166Z,-6.5
2023-02-09T04:31:06.640Z,-6.5
2023-02-09T04:32:06.292Z,-8
2023-02-09T04:33:05.742Z,-6.5
2023-02-09T04:34:06.294Z,-8
2023-02-09T04:35:05.828Z,-6.5
2023-02-09T04:36:06.668Z,-6.5
2023-02-09T04:37:06.323Z,-6.5
2023-02-09T04:38:05.923Z,-6.5
2023-02-09T04:39:06.404Z,-8
2023-02-09T04:40:08.327Z,-6.5
2023-02-09T04:41:06.460Z,-6.5
2023-02-09T04:42:06.090Z,-6.6
2023-02-09T04:43:05.764Z,-8
2023-02-09T04:44:06.579Z,-6.5
2023-02-09T04:45:06.077Z,-6.5
2023-02-09T04:46:06.062Z,-6.6
2023-02-09T04:47:06.459Z,-8
2023-02-09T04:48:06.040Z,-6.6
2023-02-09T04:49:06.612Z,-6.6
2023-02-09T04:50:06.163Z,-6.6
2023-02-09T04:51:05.732Z,-6.6
2023-02-09T04:52:06.357Z,-6.6
2023-02-09T04:53:06.016Z,-6.6
2023-02-09T04:54:06.592Z,-6.6
2023-02-09T04:55:06.166Z,-6.6
2023-02-09T04:56:05.886Z,-6.6
2023-02-09T04:57:06.375Z,-6.6
2023-02-09T04:58:06.188Z,-6.6
2023-02-09T04:59:06.512Z,-6.6
2023-02-09T05:00:06.110Z,-6.6
2023-02-09T05:01:06.020Z,-6.6
2023-02-09T05:02:06.603Z,-6.6
2023-02-09T05:03:06.317Z,-8
2023-02-09T05:04:06.006Z,-6.6
2023-02-09T05:05:06.435Z,-6.6
2023-02-09T05:06:06.218Z,-6.7
2023-02-09T05:07:05.705Z,-6.7
2023-02-09T05:08:06.424Z,-6.7
2023-02-09T05:09:05.885Z,-6.8
2023-02-09T05:10:06.644Z,-6.8
2023-02-09T05:11:06.208Z,-6.8
2023-02-09T05:12:05.889Z,-8
2023-02-09T05:13:06.406Z,-6.8
2023-02-09T05:14:05.938Z,-6.8
2023-02-09T05:15:06.666Z,-6.8
2023-02-09T05:16:05.854Z,-6.8
2023-02-09T05:17:06.347Z,-6.8
2023-02-09T05:18:05.886Z,-8
2023-02-09T05:19:06.563Z,-6.9
2023-02-09T05:20:06.439Z,-6.9
2023-02-09T05:21:05.762Z,-6.9
2023-02-09T05:22:06.359Z,-6.9
2023-02-09T05:23:05.942Z,-7
2023-02-09T05:24:06.652Z,-8
2023-02-09T05:25:06.288Z,-7
2023-02-09T05:26:05.861Z,-8
2023-02-09T05:27:06.715Z,-7
2023-02-09T05:28:06.377Z,-7
2023-02-09T05:29:05.492Z,-8
2023-02-09T05:30:06.454Z,-7.1
2023-02-09T05:31:06.918Z,-7.1
2023-02-09T05:32:06.674Z,-7.1
2023-02-09T05:33:05.820Z,-7.1
2023-02-09T05:34:06.523Z,-7.2
2023-02-09T05:35:08.310Z,-7.2
2023-02-09T05:36:05.571Z,-7.2
2023-02-09T05:37:06.388Z,-7.2
2023-02-09T05:38:06.075Z,-7.2
2023-02-09T05:39:06.717Z,-7.2
2023-02-09T05:40:06.392Z,-7.2
2023-02-09T05:41:05.718Z,-7.2
2023-02-09T05:42:06.554Z,-7.2
2023-02-09T05:43:06.177Z,-8
2023-02-09T05:44:05.770Z,-7.2
2023-02-09T05:45:06.380Z,-7.2
2023-02-09T05:46:08.505Z,-7.2
2023-02-09T05:47:06.604Z,-7.2
2023-02-09T05:48:06.089Z,-7.2
2023-02-09T05:49:05.744Z,-7.2
2023-02-09T05:50:06.263Z,-7.2
2023-02-09T05:51:05.936Z,-7.2
2023-02-09T05:52:06.529Z,-7.2
2023-02-09T05:53:06.066Z,-7.2
2023-02-09T05:54:05.627Z,-7.2
2023-02-09T05:55:06.338Z,-7.2
2023-02-09T05:56:05.947Z,-7.2
2023-02-09T05:57:06.432Z,-7.2
2023-02-09T05:58:06.203Z,-8
2023-02-09T05:59:08.343Z,-7.2
2023-02-09T06:00:06.631Z,-7.2
2023-02-09T06:01:06.507Z,-7.2
2023-02-09T06:02:06.282Z,-7.2
2023-02-09T06:03:05.918Z,-7.2
2023-02-09T06:04:06.456Z,-7.2
2023-02-09T06:05:06.213Z,-7.2
2023-02-09T06:06:05.810Z,-7.2
2023-02-09T06:07:06.354Z,-7.2
2023-02-09T06:08:06.053Z,-7.2
2023-02-09T06:09:06.628Z,-7.2
2023-02-09T06:10:06.441Z,-7.2
2023-02-09T06:11:05.969Z,-7.2
2023-02-09T06:12:06.524Z,-7.2
2023-02-09T06:13:06.079Z,-7.2
2023-02-09T06:14:06.711Z,-7.2
2023-02-09T06:15:06.337Z,-7.2
2023-02-09T06:16:06.180Z,-7.2
2023-02-09T06:17:06.348Z,-7.2
2023-02-09T06:18:06.088Z,-8
2023-02-09T06:19:05.844Z,-7.2
2023-02-09T06:20:06.198Z,-7.2
2023-02-09T06:21:05.867Z,-7.2
2023-02-09T06:22:06.331Z,-7.2
2023-02-09T06:23:06.004Z,-7.2
2023-02-09T06:24:06.474Z,-7.2
2023-02-09T06:25:06.176Z,-7.2
2023-02-09T06:26:05.716Z,-7.3
2023-02-09T06:27:06.419Z,-7.3
2023-02-09T06:28:06.312Z,-8
2023-02-09T06:29:05.761Z,-7.3
2023-02-09T06:30:06.592Z,-7.3
2023-02-09T06:31:06.617Z,-7.3
2023-02-09T06:32:06.667Z,-7.2
2023-02-09T06:33:06.690Z,-7.2
2023-02-09T06:34:06.427Z,-7.2
2023-02-09T06:35:05.953Z,-7.2
2023-02-09T06:36:06.536Z,-7.2
2023-02-09T06:37:06.160Z,-7.2
2023-02-09T06:38:05.812Z,-7.2
2023-02-09T06:39:06.391Z,-7.2
2023-02-09T06:40:06.009Z,-7.2
2023-02-09T06:41:06.335Z,-8
2023-02-09T06:42:06.170Z,-8
2023-02-09T06:43:05.796Z,-7.2
2023-02-09T06:44:06.468Z,-7.2
2023-02-09T06:45:06.005Z,-7.2
2023-02-09T06:46:05.845Z,-7.2
2023-02-09T06:47:06.268Z,-7.2
2023-02-09T06:48:06.026Z,-7.2
2023-02-09T06:49:05.984Z,-7.2
2023-02-09T06:50:06.687Z,-7.2
2023-02-09T06:51:06.204Z,-7.2
2023-02-09T06:52:06.440Z,-7.2
2023-02-09T06:53:06.051Z,-7.2
2023-02-09T06:54:06.618Z,-7.2
2023-02-09T06:55:06.146Z,-7.2
2023-02-09T06:56:05.863Z,-7.2
2023-02-09T06:57:06.660Z,-7.2
2023-02-09T06:58:06.195Z,-7.2
2023-02-09T06:59:05.559Z,-7.2
2023-02-09T07:00:06.677Z,-7.2
2023-02-09T07:01:06.573Z,-7.2
2023-02-09T07:02:06.447Z,-7.2
2023-02-09T07:03:06.145Z,-7.2
2023-02-09T07:04:06.371Z,-8
2023-02-09T07:05:06.121Z,-7.1
2023-02-09T07:06:06.664Z,-7.2
2023-02-09T07:07:06.146Z,-8
2023-02-09T07:08:05.710Z,-7.2
2023-02-09T07:09:06.202Z,-7.2
2023-02-09T07:10:05.928Z,-7.1
2023-02-09T07:11:06.561Z,-7.1
2023-02-09T07:12:06.263Z,-7.2
2023-02-09T07:13:05.825Z,-7.1
2023-02-09T07:14:06.389Z,-7
2023-02-09T07:15:05.879Z,-7
2023-02-09T07:16:06.743Z,-7
2023-02-09T07:17:06.017Z,-7
2023-02-09T07:18:05.928Z,-7
2023-02-09T07:19:06.290Z,-7
2023-02-09T07:20:05.692Z,-6.9
2023-02-09T07:21:06.667Z,-6.9
2023-02-09T07:22:06.263Z,-6.8
2023-02-09T07:23:05.805Z,-6.8
2023-02-09T07:24:06.255Z,-6.8
2023-02-09T07:25:05.857Z,-6.8
2023-02-09T07:26:06.403Z,-6.7
2023-02-09T07:27:06.095Z,-6.7
2023-02-09T07:28:06.030Z,-6.6
2023-02-09T07:29:06.498Z,-6.6
2023-02-09T07:30:06.158Z,-6.6
2023-02-09T07:31:07.164Z,-6.5
2023-02-09T07:32:06.476Z,-6.6
2023-02-09T07:33:05.898Z,-6.6
2023-02-09T07:34:06.476Z,-6.6
2023-02-09T07:35:06.245Z,-6.5
2023-02-09T07:36:06.015Z,-6.5
2023-02-09T07:37:07.025Z,-6.4
2023-02-09T07:38:06.385Z,-6.4
2023-02-09T07:39:06.049Z,-6
2023-02-09T07:40:06.609Z,-6.4
2023-02-09T07:41:06.327Z,-6.3
2023-02-09T07:42:05.838Z,-6.2
2023-02-09T07:43:06.493Z,-6
2023-02-09T07:44:05.779Z,-6.1
2023-02-09T07:45:07.216Z,-6
2023-02-09T07:46:05.976Z,-6
2023-02-09T07:47:06.676Z,-6
2023-02-09T07:48:06.409Z,-5.9
2023-02-09T07:49:05.887Z,-5.9
2023-02-09T07:50:06.512Z,-5.9
2023-02-09T07:51:06.150Z,-5.8
2023-02-09T07:52:05.868Z,-5.7
2023-02-09T07:53:06.037Z,-5.7
2023-02-09T07:54:07.549Z,-5.7
2023-02-09T07:55:06.530Z,-5.6
2023-02-09T07:56:06.169Z,-5.6
2023-02-09T07:57:05.863Z,-5.6
2023-02-09T07:58:06.360Z,-5.5
2023-02-09T07:59:06.109Z,-5.4
2023-02-09T08:00:06.909Z,-5.4
2023-02-09T08:01:05.969Z,-5.4
2023-02-09T08:02:06.766Z,-5.3
2023-02-09T08:03:06.581Z,-5.2
2023-02-09T08:04:06.131Z,-5.2
2023-02-09T08:05:06.215Z,-5.2
2023-02-09T08:06:06.224Z,-5.2
2023-02-09T08:07:05.504Z,-5.2
2023-02-09T08:08:06.224Z,-5.2
2023-02-09T08:09:05.637Z,-5.2
2023-02-09T08:10:06.593Z,-5.2
2023-02-09T08:11:06.268Z,-5.2
2023-02-09T08:12:05.662Z,-5.2
2023-02-09T08:13:06.282Z,-4.8
2023-02-09T08:14:06.216Z,-4.8
2023-02-09T08:15:05.784Z,-4.8
2023-02-09T08:16:06.254Z,-4.8
2023-02-09T08:17:05.776Z,-4.8
2023-02-09T08:18:06.388Z,-4.8
2023-02-09T08:19:05.085Z,-4.5
2023-02-09T08:20:06.605Z,-4.4
2023-02-09T08:21:06.158Z,-4.4
2023-02-09T08:22:05.676Z,-4.4
2023-02-09T08:23:06.361Z,-4.3
2023-02-09T08:24:05.792Z,-4.2
2023-02-09T08:25:06.619Z,-4.2
2023-02-09T08:26:06.235Z,-1
2023-02-09T08:27:05.798Z,-4.1
2023-02-09T08:28:06.465Z,-4
2023-02-09T08:29:05.904Z,-1
2023-02-09T08:30:06.520Z,-3.9
2023-02-09T08:31:06.848Z,-3.8
2023-02-09T08:32:06.620Z,-3.7
2023-02-09T08:33:05.818Z,-3.7
2023-02-09T08:34:06.445Z,-3.6
2023-02-09T08:35:06.162Z,-1
2023-02-09T08:36:05.813Z,-3.5
2023-02-09T08:37:06.535Z,-3.4
2023-02-09T08:38:05.954Z,-1
2023-02-09T08:39:06.464Z,-3.3
2023-02-09T08:40:06.131Z,-1
2023-02-09T08:41:05.732Z,-3.2
2023-02-09T08:42:06.454Z,-3.1
2023-02-09T08:43:05.995Z,-3
2023-02-09T08:44:06.680Z,-3
2023-02-09T08:45:06.266Z,-2.9
2023-02-09T08:46:06.594Z,-2.8
2023-02-09T08:47:06.355Z,-2.8
2023-02-09T08:48:06.559Z,-2.7
2023-02-09T08:49:06.122Z,-2.7
2023-02-09T08:50:05.640Z,-2.6
2023-02-09T08:51:06.162Z,-2.5
2023-02-09T08:52:06.100Z,-2.4
2023-02-09T08:53:06.673Z,-2.4
2023-02-09T08:54:06.188Z,-2.3
2023-02-09T08:55:05.833Z,-2.2
2023-02-09T08:56:06.461Z,-2.1
2023-02-09T08:57:06.070Z,-2
2023-02-09T08:58:06.682Z,-2
2023-02-09T08:59:06.363Z,-2
2023-02-09T09:00:05.955Z,-1.9
2023-02-09T09:01:06.329Z,-1
2023-02-09T09:02:05.759Z,-1.7
2023-02-09T09:03:06.411Z,-1.7
2023-02-09T09:04:06.351Z,-1.6
2023-02-09T09:05:06.625Z,-1.5
2023-02-09T09:06:06.211Z,-1.4
2023-02-09T09:07:05.744Z,-1.4
2023-02-09T09:08:06.315Z,-1.2
2023-02-09T09:09:05.861Z,-1.2
2023-02-09T09:10:05.836Z,-1.1
2023-02-09T09:11:06.335Z,-1
2023-02-09T09:12:05.948Z,-0.9
2023-02-09T09:13:06.504Z,-1
2023-02-09T09:14:06.215Z,-0.8
2023-02-09T09:15:05.663Z,-0.8
2023-02-09T09:16:09.435Z,-0.6
2023-02-09T09:17:06.250Z,-0.6
2023-02-09T09:18:05.834Z,-0.5
2023-02-09T09:19:06.490Z,-0.4
2023-02-09T09:20:05.939Z,-0.3
2023-02-09T09:21:06.995Z,-0.2
2023-02-09T09:22:06.260Z,-0.1
2023-02-09T09:23:05.854Z,0
2023-02-09T09:24:06.629Z,0
2023-02-09T09:25:06.276Z,0.1
2023-02-09T09:26:05.713Z,0.1
2023-02-09T09:27:06.370Z,0.2
2023-02-09T09:28:06.222Z,0.2
2023-02-09T09:29:06.627Z,0.3
2023-02-09T09:30:06.283Z,0.3
2023-02-09T09:31:06.438Z,0.4
2023-02-09T09:32:06.199Z,0.5
2023-02-09T09:33:07.028Z,0.5
2023-02-09T09:34:06.124Z,0.6
2023-02-09T09:35:05.808Z,0.7
2023-02-09T09:36:06.598Z,0.7
2023-02-09T09:37:06.017Z,0.7
2023-02-09T09:38:06.784Z,0.8
2023-02-09T09:39:06.350Z,0.8
2023-02-09T09:40:06.245Z,0.8
2023-02-09T09:41:05.832Z,0.8
2023-02-09T09:42:06.395Z,0.8
2023-02-09T09:43:05.975Z,0.9
2023-02-09T09:44:06.698Z,1
2023-02-09T09:45:06.501Z,1.1
2023-02-09T09:46:05.718Z,1.2
2023-02-09T09:47:06.346Z,1.3
2023-02-09T09:48:06.466Z,1.3
2023-02-09T09:49:06.141Z,1.6
2023-02-09T09:50:06.711Z,1.6
2023-02-09T09:51:06.521Z,1.6
2023-02-09T09:52:05.982Z,1.7
2023-02-09T09:53:06.723Z,1.7
2023-02-09T09:54:06.194Z,1.8
2023-02-09T09:55:05.637Z,1.9
2023-02-09T09:56:06.380Z,1.9
2023-02-09T09:57:06.253Z,0
2023-02-09T09:58:05.920Z,2
2023-02-09T09:59:06.503Z,2.1
2023-02-09T10:00:05.944Z,2.2
2023-02-09T10:01:06.340Z,2.2
2023-02-09T10:02:05.751Z,2.3
2023-02-09T10:03:06.446Z,2.3
2023-02-09T10:04:05.802Z,2.4
2023-02-09T10:05:06.455Z,2.4
2023-02-09T10:06:05.846Z,2.5
2023-02-09T10:07:06.421Z,2.6
2023-02-09T10:08:06.128Z,2.7
2023-02-09T10:09:05.843Z,2.8
2023-02-09T10:10:06.620Z,2.9
2023-02-09T10:11:06.148Z,2.9
2023-02-09T10:12:05.737Z,3
2023-02-09T10:13:06.377Z,2.9
2023-02-09T10:14:06.050Z,2.8
2023-02-09T10:15:06.581Z,2.8
2023-02-09T10:16:06.447Z,2.8
2023-02-09T10:17:06.221Z,2.9
2023-02-09T10:18:06.580Z,2.9
2023-02-09T10:19:06.248Z,3
2023-02-09T10:20:06.101Z,3
2023-02-09T10:21:06.644Z,3.2
2023-02-09T10:22:06.271Z,3.2
2023-02-09T10:23:05.901Z,3.2
2023-02-09T10:24:06.494Z,1
2023-02-09T10:25:06.031Z,1
2023-02-09T10:26:05.750Z,3.4
2023-02-09T10:27:06.322Z,1
2023-02-09T10:28:06.110Z,3.6
2023-02-09T10:29:06.492Z,3.6
2023-02-09T10:30:06.293Z,3.6
2023-02-09T10:31:07.021Z,3.6
2023-02-09T10:32:06.243Z,3.7
2023-02-09T10:33:05.858Z,3.7
2023-02-09T10:34:06.571Z,3.7
2023-02-09T10:35:06.212Z,3.8
2023-02-09T10:36:06.854Z,0
2023-02-09T10:37:05.998Z,3.8
2023-02-09T10:38:05.879Z,3.8
2023-02-09T10:39:06.409Z,3.8
2023-02-09T10:40:05.842Z,3.8
2023-02-09T10:41:06.287Z,3.8
2023-02-09T10:42:06.263Z,3.8
2023-02-09T10:43:06.013Z,3.8
2023-02-09T10:44:06.492Z,3.8
2023-02-09T10:45:06.279Z,3.8
2023-02-09T10:46:05.925Z,3.9
2023-02-09T10:47:06.547Z,3.9
2023-02-09T10:48:06.116Z,1
2023-02-09T10:49:06.688Z,4
2023-02-09T10:50:06.396Z,4.1
2023-02-09T10:51:05.821Z,4.3
2023-02-09T10:52:06.304Z,4.4
2023-02-09T10:53:05.958Z,4.5
2023-02-09T10:54:06.529Z,4.6
2023-02-09T10:55:06.225Z,4.6
2023-02-09T10:56:05.752Z,4.7
2023-02-09T10:57:06.539Z,4.7
2023-02-09T10:58:06.121Z,4.7
2023-02-09T10:59:05.734Z,4.6
2023-02-09T11:00:06.329Z,4.6
2023-02-09T11:01:06.240Z,4.7
2023-02-09T11:02:05.752Z,4.7
2023-02-09T11:03:06.604Z,4.8
2023-02-09T11:04:06.249Z,4.9
2023-02-09T11:05:05.597Z,5
2023-02-09T11:06:06.413Z,5
2023-02-09T11:07:06.037Z,5
2023-02-09T11:08:06.585Z,5.1
2023-02-09T11:09:06.372Z,5.2
2023-02-09T11:11:06.429Z,2
2023-02-09T11:12:06.124Z,5.4
2023-02-09T11:13:05.826Z,5.3
2023-02-09T11:14:06.099Z,5.4
2023-02-09T11:15:06.003Z,5.4
2023-02-09T11:16:06.110Z,5.4
2023-02-09T11:17:06.500Z,5.5
2023-02-09T11:18:06.141Z,5.4
2023-02-09T11:19:07.974Z,5.6
2023-02-09T11:20:06.263Z,5.6
2023-02-09T11:21:05.894Z,5.6
2023-02-09T11:22:06.413Z,5.6
2023-02-09T11:23:05.931Z,2
2023-02-09T11:24:06.768Z,5.8
2023-02-09T11:25:06.367Z,5.9
2023-02-09T11:26:05.931Z,5.8
2023-02-09T11:27:06.629Z,5.8
2023-02-09T11:28:06.338Z,2
2023-02-09T11:29:05.753Z,5.7
2023-02-09T11:30:06.664Z,5.6
2023-02-09T11:31:06.694Z,5.6
2023-02-09T11:32:06.079Z,5.5
2023-02-09T11:33:06.728Z,5.4
2023-02-09T11:34:06.248Z,3
2023-02-09T11:35:06.016Z,5.4
2023-02-09T11:36:06.521Z,5.5
2023-02-09T11:37:05.923Z,5.5
2023-02-09T11:38:06.607Z,5.5
2023-02-09T11:39:06.024Z,5.6
2023-02-09T11:40:05.962Z,5.6
2023-02-09T11:41:06.379Z,5.6
2023-02-09T11:42:06.205Z,5.7
2023-02-09T11:43:05.817Z,5.7
2023-02-09T11:44:06.608Z,5.8
2023-02-09T11:45:07.974Z,5.9
2023-02-09T11:46:06.559Z,3
2023-02-09T11:47:06.212Z,3
2023-02-09T11:48:05.816Z,4
2023-02-09T11:49:06.258Z,6
2023-02-09T11:50:05.933Z,4
2023-02-09T11:51:06.727Z,6
2023-02-09T11:52:06.309Z,6
2023-02-09T11:53:05.776Z,6.1
2023-02-09T11:54:06.485Z,6.1
2023-02-09T11:55:06.274Z,6
2023-02-09T11:56:05.806Z,6
2023-02-09T11:57:06.382Z,6
2023-02-09T11:58:05.919Z,4
2023-02-09T11:59:06.438Z,4
2023-02-09T12:00:05.809Z,6
2023-02-09T12:01:20.196Z,6
2023-02-09T12:02:05.826Z,6.1
2023-02-09T12:03:06.608Z,6.1
2023-02-09T12:04:06.290Z,6
2023-02-09T12:05:06.801Z,6
2023-02-09T12:06:06.448Z,6
2023-02-09T12:07:06.011Z,6
2023-02-09T12:08:06.572Z,6.1
2023-02-09T12:09:06.223Z,6.1
2023-02-09T12:10:05.880Z,6.1
2023-02-09T12:11:06.319Z,6.1
2023-02-09T12:12:06.139Z,6.1
2023-02-09T12:13:05.474Z,6.2
2023-02-09T12:14:06.174Z,6.2
2023-02-09T12:15:05.925Z,6.2
2023-02-09T12:16:06.204Z,6.2
2023-02-09T12:17:06.611Z,6.3
2023-02-09T12:18:06.411Z,6.3
2023-02-09T12:19:05.938Z,6.4
2023-02-09T12:20:06.592Z,6.3
2023-02-09T12:21:06.191Z,6.4
2023-02-09T12:22:05.715Z,4
2023-02-09T12:23:06.484Z,6.4
2023-02-09T12:24:05.863Z,6.4
2023-02-09T12:25:06.612Z,4
2023-02-09T12:26:05.948Z,6.5
2023-02-09T12:27:05.747Z,6.5
2023-02-09T12:28:06.578Z,6.5
2023-02-09T12:29:06.153Z,4
2023-02-09T12:30:05.763Z,6.6
2023-02-09T12:31:06.655Z,6.6
2023-02-09T12:32:06.297Z,6.6
2023-02-09T12:33:06.372Z,6.6
2023-02-09T12:34:06.013Z,6.6
2023-02-09T12:35:06.701Z,6.6
2023-02-09T12:36:06.388Z,6.6
2023-02-09T12:37:05.866Z,6.7
2023-02-09T12:38:06.446Z,6.7
2023-02-09T12:39:10.056Z,6.7
2023-02-09T12:40:05.532Z,6.7
2023-02-09T12:41:06.519Z,6.7
2023-02-09T12:42:06.162Z,6.6
2023-02-09T12:43:05.622Z,6.7
2023-02-09T12:44:06.584Z,6.7
2023-02-09T12:45:06.226Z,3
2023-02-09T12:46:07.525Z,3
2023-02-09T12:47:06.645Z,6.7
2023-02-09T12:48:06.348Z,6.6
2023-02-09T12:49:05.843Z,6.7
2023-02-09T12:50:06.500Z,6.6
2023-02-09T12:51:06.151Z,6.6
2023-02-09T12:52:06.761Z,6.6
2023-02-09T12:53:06.211Z,6.6
2023-02-09T12:54:05.878Z,6.6
2023-02-09T12:55:06.409Z,6.6
2023-02-09T12:56:06.152Z,6.6
2023-02-09T12:57:05.795Z,6.6
2023-02-09T12:58:06.496Z,6.5
2023-02-09T12:59:06.107Z,6.5
2023-02-09T13:00:05.836Z,6.5
2023-02-09T13:01:06.845Z,3
2023-02-09T13:02:06.040Z,6.5
2023-02-09T13:03:07.702Z,6.5
2023-02-09T13:04:06.712Z,6.5
2023-02-09T13:05:06.188Z,6.4
2023-02-09T13:06:06.718Z,6.5
2023-02-09T13:07:06.359Z,6.4
2023-02-09T13:08:06.009Z,6.4
2023-02-09T13:09:06.592Z,6.4
2023-02-09T13:10:07.155Z,6.4
2023-02-09T13:11:06.230Z,6.4
2023-02-09T13:12:05.719Z,3
2023-02-09T13:13:06.496Z,6.4
2023-02-09T13:14:05.947Z,6.4
2023-02-09T13:15:05.760Z,6.4
2023-02-09T13:16:07.511Z,6.4
2023-02-09T13:17:06.523Z,6.3
2023-02-09T13:18:06.231Z,6.3
2023-02-09T13:19:06.377Z,6.3
2023-02-09T13:20:06.178Z,6.3
2023-02-09T13:21:05.995Z,6.3
2023-02-09T13:22:06.961Z,6.2
2023-02-09T13:23:06.520Z,3
2023-02-09T13:24:06.187Z,6.2
2023-02-09T13:25:06.376Z,6.2
2023-02-09T13:26:06.049Z,6.2
2023-02-09T13:27:08.461Z,6.1
2023-02-09T13:28:06.392Z,6.1
2023-02-09T13:29:23.343Z,6
2023-02-09T13:30:06.735Z,6
2023-02-09T13:31:05.715Z,6
2023-02-09T13:32:06.535Z,5.9
2023-02-09T13:33:07.318Z,5.8
2023-02-09T13:34:06.748Z,5.8
2023-02-09T13:35:06.347Z,5.8
2023-02-09T13:36:19.613Z,5.8
2023-02-09T13:37:05.886Z,5.8